Time;durP1;ratioP1;P1;durP2;ratioP2;P2;SDS_P1;SDS_P2;PMS_P1;PMS_P2;Temp;Humidity;BMP_temperature;BMP_pressure;BME280_temperature;BME280_humidity;BME280_pressure;Samples;Min_cycle;Max_cycle;Signal;HPM_P1;HPM_P2
2022/07/18 00:01:43;;;;;;;7.00;2.08;;;19.30;99.90;;;;;;5071271;28;20206;-72
2022/07/18 00:04:08;;;;;;;3.05;1.85;;;19.30;99.90;;;;;;5071235;28;20257;-71
2022/07/18 00:06:35;;;;;;;6.15;2.20;;;19.30;99.90;;;;;;5036522;28;20234;-69
2022/07/18 00:09:01;;;;;;;5.97;2.00;;;19.30;99.90;;;;;;5065082;28;20255;-71
2022/07/18 00:11:26;;;;;;;4.15;2.10;;;19.30;99.90;;;;;;5042602;28;20212;-71
2022/07/18 00:13:52;;;;;;;6.57;2.50;;;19.30;99.90;;;;;;5070856;28;20243;-70
2022/07/18 00:16:18;;;;;;;3.80;2.00;;;19.30;99.90;;;;;;5071082;28;20330;-72
2022/07/18 00:18:44;;;;;;;4.63;2.30;;;19.30;99.90;;;;;;5068496;28;20234;-71
2022/07/18 00:21:09;;;;;;;5.40;2.03;;;19.30;99.90;;;;;;5070838;28;20183;-70
2022/07/18 00:23:35;;;;;;;6.60;2.08;;;19.30;99.90;;;;;;5071028;28;20294;-70
2022/07/18 00:26:01;;;;;;;6.25;2.30;;;19.30;99.90;;;;;;5070235;28;20697;-72
2022/07/18 00:28:27;;;;;;;5.43;2.22;;;19.30;99.90;;;;;;5069783;28;20210;-70
2022/07/18 00:30:52;;;;;;;8.35;2.45;;;19.30;99.90;;;;;;5070684;28;20279;-70
2022/07/18 00:33:18;;;;;;;6.40;2.30;;;19.30;99.90;;;;;;5053399;28;20196;-70
2022/07/18 00:35:43;;;;;;;5.53;2.13;;;19.30;99.90;;;;;;5033658;28;20195;-71
2022/07/18 00:38:09;;;;;;;5.00;2.42;;;19.20;99.90;;;;;;5050165;28;20223;-71
2022/07/18 00:40:35;;;;;;;6.47;2.33;;;19.20;99.90;;;;;;5050768;28;20634;-71
2022/07/18 00:43:00;;;;;;;4.90;1.58;;;19.30;99.90;;;;;;5050698;28;20200;-70
2022/07/18 00:45:26;;;;;;;3.75;1.80;;;19.30;99.90;;;;;;5050651;28;20325;-71
2022/07/18 00:47:52;;;;;;;3.80;1.83;;;19.30;99.90;;;;;;5055523;28;20171;-70
2022/07/18 00:50:19;;;;;;;4.28;1.60;;;19.20;99.90;;;;;;5044204;28;20226;-72
2022/07/18 00:52:46;;;;;;;3.60;2.05;;;19.20;99.90;;;;;;5070361;28;20217;-70
2022/07/18 00:55:12;;;;;;;4.63;1.75;;;19.20;99.90;;;;;;5044241;28;20264;-70
2022/07/18 00:57:39;;;;;;;3.53;1.70;;;19.10;99.90;;;;;;5070030;28;20290;-71
2022/07/18 01:02:53;;;;;;;8.88;2.10;;;19.00;99.90;;;;;;5056006;28;20174;-71
2022/07/18 01:05:18;;;;;;;5.35;1.73;;;19.00;99.90;;;;;;5070132;28;20257;-71
2022/07/18 01:07:44;;;;;;;4.75;1.80;;;19.00;99.90;;;;;;5070086;28;20838;-71
2022/07/18 01:10:10;;;;;;;4.00;2.00;;;18.90;99.90;;;;;;5045295;28;20222;-70
2022/07/18 01:12:35;;;;;;;5.57;1.90;;;18.90;99.90;;;;;;5032125;28;20222;-71
2022/07/18 01:15:01;;;;;;;3.75;2.03;;;18.90;99.90;;;;;;5063973;28;20245;-70
2022/07/18 01:17:27;;;;;;;3.13;1.65;;;19.00;99.90;;;;;;5068082;28;20191;-70
2022/07/18 01:19:52;;;;;;;3.40;2.10;;;19.00;99.90;;;;;;5069816;28;20210;-69
2022/07/18 01:22:20;;;;;;;2.65;1.55;;;18.90;99.90;;;;;;5070165;28;20206;-71
2022/07/18 01:24:46;;;;;;;7.43;2.05;;;18.90;99.90;;;;;;5069732;28;20663;-70
2022/07/18 01:27:20;;;;;;;4.35;1.80;;;18.80;99.90;;;;;;5070341;28;20215;-70
2022/07/18 01:29:47;;;;;;;4.47;1.75;;;18.80;99.90;;;;;;5040483;28;20202;-70
2022/07/18 01:32:14;;;;;;;4.30;1.63;;;18.80;99.90;;;;;;5057037;28;20196;-72
2022/07/18 01:34:40;;;;;;;6.57;1.70;;;18.80;99.90;;;;;;5031576;28;20715;-69
2022/07/18 01:37:06;;;;;;;4.72;1.77;;;18.70;99.90;;;;;;5049902;28;20203;-70
2022/07/18 01:39:32;;;;;;;4.97;1.80;;;18.70;99.90;;;;;;5053695;28;20586;-71
2022/07/18 01:42:06;;;;;;;2.83;1.80;;;18.70;99.90;;;;;;5054564;28;20267;-70
2022/07/18 01:44:32;;;;;;;7.35;4.25;;;18.60;99.90;;;;;;5054128;28;20216;-71
2022/07/18 01:46:59;;;;;;;4.00;2.15;;;18.60;99.90;;;;;;5053378;28;20222;-69
2022/07/18 01:49:28;;;;;;;6.90;2.05;;;18.50;99.90;;;;;;5070508;28;20210;-71
2022/07/18 01:51:54;;;;;;;4.75;2.28;;;18.50;99.90;;;;;;5054212;28;20205;-71
2022/07/18 01:54:25;;;;;;;7.95;4.07;;;18.50;99.90;;;;;;5053752;28;20290;-70
2022/07/18 01:56:50;;;;;;;6.50;3.40;;;18.50;99.90;;;;;;5032563;28;20175;-71
2022/07/18 01:59:16;;;;;;;5.40;2.42;;;18.40;99.90;;;;;;5073696;28;20741;-69
2022/07/18 02:01:42;;;;;;;5.88;2.78;;;18.40;99.90;;;;;;5073354;28;20888;-70
2022/07/18 02:04:07;;;;;;;9.77;4.43;;;18.30;99.90;;;;;;5073580;28;20235;-71
2022/07/18 02:06:33;;;;;;;5.13;2.80;;;18.40;99.90;;;;;;5073585;28;20755;-69
2022/07/18 02:08:58;;;;;;;5.45;2.65;;;18.30;99.90;;;;;;5042167;28;20204;-71
2022/07/18 02:11:24;;;;;;;6.60;2.55;;;18.30;99.90;;;;;;5070798;28;20802;-71
2022/07/18 02:13:50;;;;;;;11.55;4.75;;;18.20;99.90;;;;;;5073480;28;20276;-71
2022/07/18 02:16:16;;;;;;;8.00;3.10;;;18.20;99.90;;;;;;5073578;28;20278;-71
2022/07/18 02:18:42;;;;;;;18.00;8.95;;;18.10;99.90;;;;;;5070857;28;20195;-71
2022/07/18 02:21:08;;;;;;;10.27;5.75;;;18.10;99.90;;;;;;5047143;28;20175;-72
2022/07/18 02:26:03;;;;;;;4.50;2.08;;;18.10;99.90;;;;;;5029185;28;20323;-70
2022/07/18 02:28:29;;;;;;;4.78;2.20;;;18.00;99.90;;;;;;5032539;28;20315;-71
2022/07/18 02:30:54;;;;;;;5.20;2.35;;;17.90;99.90;;;;;;5033580;28;20204;-71
2022/07/18 02:33:20;;;;;;;2.40;1.90;;;17.90;99.90;;;;;;5033302;28;20303;-71
2022/07/18 02:35:45;;;;;;;4.47;2.15;;;17.90;99.90;;;;;;5043618;28;20209;-71
2022/07/18 02:38:11;;;;;;;3.10;1.95;;;17.90;99.90;;;;;;5052977;28;20199;-71
2022/07/18 02:40:37;;;;;;;5.72;2.38;;;17.80;99.90;;;;;;5052906;28;20234;-72
2022/07/18 02:43:03;;;;;;;6.22;2.08;;;17.80;99.90;;;;;;5053149;28;20720;-71
2022/07/18 02:45:28;;;;;;;3.17;1.98;;;17.80;99.90;;;;;;5053013;28;20223;-70
2022/07/18 02:47:54;;;;;;;9.63;1.95;;;17.80;99.90;;;;;;5053491;28;20629;-71
2022/07/18 02:50:20;;;;;;;4.57;2.00;;;17.80;99.90;;;;;;5051980;28;20235;-71
2022/07/18 02:52:46;;;;;;;4.70;2.30;;;17.80;99.90;;;;;;5052849;28;20246;-70
2022/07/18 02:55:13;;;;;;;4.78;1.95;;;17.80;99.90;;;;;;5052783;28;20219;-70
2022/07/18 02:57:40;;;;;;;3.83;2.45;;;17.80;99.90;;;;;;5052885;28;20216;-71
2022/07/18 03:00:09;;;;;;;6.78;2.67;;;17.80;99.90;;;;;;5035411;28;20222;-70
2022/07/18 03:02:34;;;;;;;4.50;2.35;;;17.70;99.90;;;;;;5052515;28;20176;-72
2022/07/18 03:05:00;;;;;;;5.40;2.47;;;17.70;99.90;;;;;;5052739;28;20213;-70
2022/07/18 03:07:25;;;;;;;3.20;2.20;;;17.70;99.90;;;;;;5052330;28;20215;-70
2022/07/18 03:09:51;;;;;;;6.00;2.10;;;17.70;99.90;;;;;;5052106;28;20219;-71
2022/07/18 03:12:17;;;;;;;4.93;2.10;;;17.70;99.90;;;;;;5052538;28;20183;-71
2022/07/18 03:14:43;;;;;;;4.82;2.47;;;17.60;99.90;;;;;;5052920;28;20206;-70
2022/07/18 03:17:09;;;;;;;4.60;2.25;;;17.70;99.90;;;;;;5052301;28;20211;-71
2022/07/18 03:19:35;;;;;;;4.57;2.03;;;17.60;99.90;;;;;;5033580;28;20586;-71
2022/07/18 03:22:01;;;;;;;5.22;2.15;;;17.70;99.90;;;;;;5052479;28;20204;-70
2022/07/18 03:24:26;;;;;;;8.02;2.50;;;17.80;99.90;;;;;;5051962;28;20247;-71
2022/07/18 03:26:52;;;;;;;8.15;2.80;;;17.80;99.90;;;;;;5052854;28;20206;-71
2022/07/18 03:29:18;;;;;;;5.72;2.80;;;17.80;99.90;;;;;;5051773;28;20639;-71
2022/07/18 03:31:43;;;;;;;3.42;2.28;;;17.90;99.90;;;;;;5051577;28;20338;-71
2022/07/18 03:34:09;;;;;;;2.38;1.80;;;17.90;99.90;;;;;;5051978;28;21000;-70
2022/07/18 03:36:35;;;;;;;5.07;2.13;;;17.90;99.90;;;;;;5051860;28;20227;-71
2022/07/18 03:39:01;;;;;;;3.30;2.08;;;18.00;99.90;;;;;;5051762;28;20175;-70
2022/07/18 03:41:27;;;;;;;4.47;2.55;;;18.10;99.90;;;;;;5034457;28;20187;-72
2022/07/18 03:43:52;;;;;;;3.58;2.10;;;18.60;99.90;;;;;;5051877;28;20208;-70
2022/07/18 03:46:18;;;;;;;6.65;2.17;;;19.30;99.90;;;;;;5051757;28;20212;-71
2022/07/18 03:48:44;;;;;;;3.78;2.10;;;20.20;99.90;;;;;;5051274;28;20219;-71
2022/07/18 03:51:09;;;;;;;6.03;2.22;;;21.10;99.90;;;;;;5051894;28;20230;-71
2022/07/18 03:53:35;;;;;;;6.22;2.17;;;21.30;99.90;;;;;;5051953;28;20234;-70
2022/07/18 03:56:01;;;;;;;6.88;2.67;;;22.20;99.90;;;;;;5025677;28;20643;-71
2022/07/18 03:58:26;;;;;;;7.20;2.40;;;22.50;99.90;;;;;;5033296;28;20318;-71
2022/07/18 04:00:52;;;;;;;7.95;2.20;;;22.00;99.90;;;;;;5032396;28;20755;-72
2022/07/18 04:03:18;;;;;;;7.35;2.63;;;22.00;99.90;;;;;;5051247;28;20752;-71
2022/07/18 04:05:44;;;;;;;7.38;2.97;;;21.80;99.90;;;;;;5051736;28;20218;-71
2022/07/18 04:08:09;;;;;;;5.53;2.55;;;22.50;99.90;;;;;;5051192;28;20208;-71
2022/07/18 04:10:35;;;;;;;6.55;2.30;;;23.00;99.90;;;;;;5051112;28;20244;-72
2022/07/18 04:13:01;;;;;;;3.50;2.40;;;23.00;99.90;;;;;;5033564;28;20200;-71
2022/07/18 04:15:27;;;;;;;6.00;2.20;;;23.60;99.90;;;;;;5050944;28;20746;-71
2022/07/18 04:17:53;;;;;;;6.63;2.30;;;24.60;99.90;;;;;;5051601;28;20180;-71
2022/07/18 04:20:19;;;;;;;3.60;2.10;;;25.70;99.90;;;;;;5051155;28;20203;-71
2022/07/18 04:22:52;;;;;;;6.28;2.58;;;26.10;99.90;;;;;;5051125;28;20203;-70
2022/07/18 04:25:19;;;;;;;4.78;2.20;;;26.60;99.90;;;;;;5050897;28;20289;-71
2022/07/18 04:27:45;;;;;;;4.18;2.17;;;26.90;99.90;;;;;;5050708;28;20659;-71
2022/07/18 04:30:12;;;;;;;5.63;2.45;;;26.90;99.90;;;;;;5050312;28;20204;-71
2022/07/18 04:32:38;;;;;;;6.05;2.35;;;26.80;99.90;;;;;;5051170;28;20215;-69
2022/07/18 04:35:05;;;;;;;4.90;2.40;;;27.20;99.90;;;;;;5050832;28;20214;-69
2022/07/18 04:37:33;;;;;;;7.55;2.58;;;27.80;99.90;;;;;;5050670;28;20199;-71
2022/07/18 04:40:00;;;;;;;5.80;2.35;;;28.30;99.90;;;;;;5050655;28;20714;-70
2022/07/18 04:42:26;;;;;;;4.50;2.30;;;28.90;99.90;;;;;;5050535;28;20583;-70
2022/07/18 04:44:52;;;;;;;4.07;2.30;;;29.70;99.90;;;;;;5051033;28;20202;-70
2022/07/18 04:47:17;;;;;;;5.38;2.60;;;29.80;99.90;;;;;;5050614;28;20196;-70
2022/07/18 04:49:43;;;;;;;6.03;2.83;;;29.30;99.90;;;;;;5050204;28;20253;-69
2022/07/18 04:52:09;;;;;;;5.20;2.45;;;29.40;99.90;;;;;;5050490;28;20204;-69
2022/07/18 04:54:34;;;;;;;7.07;3.00;;;29.10;99.90;;;;;;5032259;28;20242;-70
2022/07/18 04:57:00;;;;;;;5.43;2.50;;;29.00;99.90;;;;;;5050534;28;20172;-70
2022/07/18 04:59:26;;;;;;;5.53;2.85;;;29.40;99.90;;;;;;5049880;28;20180;-69
2022/07/18 05:01:51;;;;;;;4.78;2.53;;;30.20;99.30;;;;;;5050822;28;20204;-70
2022/07/18 05:04:17;;;;;;;6.90;2.47;;;30.40;98.20;;;;;;5050333;28;20207;-70
2022/07/18 05:06:42;;;;;;;8.27;3.47;;;30.40;97.40;;;;;;5050329;28;20257;-70
2022/07/18 05:09:08;;;;;;;6.05;2.97;;;30.20;97.20;;;;;;5049636;28;20298;-70
2022/07/18 05:11:34;;;;;;;7.55;3.25;;;30.80;97.20;;;;;;5049073;28;20187;-70
2022/07/18 05:13:59;;;;;;;4.78;2.63;;;32.10;95.80;;;;;;5049936;28;20203;-69
2022/07/18 05:16:25;;;;;;;6.60;2.58;;;33.70;93.30;;;;;;5050464;28;20203;-68
2022/07/18 05:18:50;;;;;;;5.18;2.85;;;34.40;91.20;;;;;;5049937;28;20199;-69
2022/07/18 05:21:16;;;;;;;6.38;2.78;;;34.10;90.30;;;;;;5032296;28;20171;-68
2022/07/18 05:23:41;;;;;;;4.28;2.80;;;33.10;91.00;;;;;;5050502;28;20280;-70
2022/07/18 05:26:07;;;;;;;5.80;2.67;;;32.40;91.30;;;;;;5050198;28;20210;-67
2022/07/18 05:28:33;;;;;;;6.57;2.75;;;32.10;91.40;;;;;;5031713;28;20305;-71
2022/07/18 05:30:58;;;;;;;5.28;2.50;;;31.90;91.80;;;;;;5049890;28;20211;-69
2022/07/18 05:33:24;;;;;;;5.15;2.53;;;32.90;91.40;;;;;;5049933;28;20206;-70
2022/07/18 05:35:50;;;;;;;3.83;2.47;;;34.20;89.70;;;;;;5050542;28;20191;-68
2022/07/18 05:38:16;;;;;;;8.43;3.00;;;34.60;87.60;;;;;;5049811;28;20260;-69
2022/07/18 05:40:41;;;;;;;6.90;2.88;;;33.50;86.60;;;;;;5049905;28;20211;-69
2022/07/18 05:43:07;;;;;;;9.13;2.58;;;34.00;85.60;;;;;;5050138;28;20210;-71
2022/07/18 05:45:33;;;;;;;7.40;2.65;;;34.30;84.30;;;;;;5050002;28;20752;-69
2022/07/18 05:47:58;;;;;;;3.63;2.25;;;33.50;84.80;;;;;;5049850;28;20182;-69
2022/07/18 05:50:27;;;;;;;7.50;3.00;;;32.70;85.50;;;;;;5050238;28;20302;-69
2022/07/18 05:52:52;;;;;;;6.53;2.83;;;31.60;87.90;;;;;;5033847;28;20253;-70
2022/07/18 05:55:19;;;;;;;6.65;2.75;;;31.20;89.60;;;;;;5049969;28;20239;-70
2022/07/18 05:57:45;;;;;;;5.05;3.55;;;32.10;89.30;;;;;;5049648;28;20266;-69
2022/07/18 06:00:12;;;;;;;6.50;3.20;;;31.60;89.50;;;;;;5049954;28;20176;-70
2022/07/18 06:02:37;;;;;;;4.72;2.67;;;31.60;88.70;;;;;;5050329;28;20188;-69
2022/07/18 06:05:05;;;;;;;5.57;3.20;;;31.90;89.30;;;;;;5050065;28;20215;-70
2022/07/18 06:07:30;;;;;;;4.05;2.88;;;32.50;87.30;;;;;;5049648;28;20207;-69
2022/07/18 06:09:56;;;;;;;6.03;2.80;;;32.80;87.20;;;;;;5049848;28;20433;-70
2022/07/18 06:12:22;;;;;;;4.78;3.05;;;33.50;85.10;;;;;;5049733;28;20214;-70
2022/07/18 06:14:47;;;;;;;7.10;3.95;;;34.50;83.80;;;;;;5050630;28;20195;-69
2022/07/18 06:17:13;;;;;;;4.88;3.00;;;35.00;80.50;;;;;;5032093;28;20261;-71
2022/07/18 06:19:39;;;;;;;6.28;3.10;;;34.60;80.10;;;;;;5049370;28;20211;-69
2022/07/18 06:22:05;;;;;;;4.68;3.17;;;35.40;78.90;;;;;;5049269;28;20257;-69
2022/07/18 06:24:30;;;;;;;5.95;2.75;;;36.10;77.00;;;;;;5048938;28;20238;-70
2022/07/18 06:26:56;;;;;;;4.82;2.63;;;36.40;75.70;;;;;;5053996;28;20174;-70
2022/07/18 06:29:22;;;;;;;5.10;2.55;;;36.10;75.10;;;;;;5052261;28;20226;-70
2022/07/18 06:31:47;;;;;;;4.03;2.00;;;36.80;73.70;;;;;;5053375;28;20265;-69
2022/07/18 06:34:13;;;;;;;3.17;2.20;;;36.80;72.20;;;;;;5052815;28;20230;-69
2022/07/18 06:36:39;;;;;;;2.65;1.95;;;36.80;71.40;;;;;;5052807;28;20207;-70
2022/07/18 06:39:10;;;;;;;3.95;2.20;;;35.80;72.00;;;;;;5040673;28;20549;-69
2022/07/18 06:41:36;;;;;;;4.63;2.30;;;35.30;73.50;;;;;;5053025;28;20286;-69
2022/07/18 06:44:02;;;;;;;5.97;2.40;;;36.20;72.90;;;;;;5053311;28;20206;-70
2022/07/18 06:46:27;;;;;;;4.20;2.05;;;36.60;71.90;;;;;;5052443;28;20539;-69
2022/07/18 06:48:53;;;;;;;2.38;2.15;;;35.90;71.70;;;;;;5036639;28;20273;-69
2022/07/18 06:51:19;;;;;;;5.88;2.30;;;35.90;72.60;;;;;;5053041;28;20746;-69
2022/07/18 06:53:44;;;;;;;3.53;2.13;;;36.20;73.10;;;;;;5052694;28;20733;-69
2022/07/18 06:56:10;;;;;;;5.35;2.30;;;36.20;73.00;;;;;;5052178;28;20237;-69
2022/07/18 06:58:35;;;;;;;3.45;1.80;;;36.20;73.10;;;;;;5052163;28;20229;-67
2022/07/18 07:01:02;;;;;;;3.28;2.28;;;36.30;71.60;;;;;;5050893;28;20223;-69
2022/07/18 07:03:28;;;;;;;3.40;2.00;;;36.80;70.20;;;;;;5052698;28;20219;-69
2022/07/18 07:05:53;;;;;;;3.80;2.05;;;36.90;69.00;;;;;;5052507;28;20199;-68
2022/07/18 07:08:19;;;;;;;2.55;1.98;;;36.80;69.20;;;;;;5050495;28;20207;-68
2022/07/18 07:10:45;;;;;;;3.88;2.30;;;36.80;68.30;;;;;;5051220;28;20726;-69
2022/07/18 07:13:10;;;;;;;3.03;2.08;;;37.00;67.50;;;;;;5051975;28;20211;-68
2022/07/18 07:15:36;;;;;;;3.50;1.88;;;36.60;66.30;;;;;;5035878;28;20223;-69
2022/07/18 07:18:01;;;;;;;2.20;2.00;;;36.50;67.00;;;;;;5052041;28;20720;-69
2022/07/18 07:20:27;;;;;;;3.22;1.83;;;36.80;67.40;;;;;;5052532;28;20653;-69
2022/07/18 07:22:55;;;;;;;2.42;1.85;;;36.70;67.40;;;;;;5052280;28;20209;-69
2022/07/18 07:25:23;;;;;;;3.70;2.22;;;37.40;65.90;;;;;;5040634;28;20594;-71
2022/07/18 07:27:49;;;;;;;3.22;2.10;;;37.20;65.80;;;;;;5052736;28;20616;-69
2022/07/18 07:30:15;;;;;;;2.20;2.00;;;37.20;64.10;;;;;;5051302;28;20199;-68
2022/07/18 07:32:43;;;;;;;2.20;1.67;;;37.60;64.40;;;;;;5052327;28;20191;-70
2022/07/18 07:35:12;;;;;;;2.50;1.90;;;36.40;64.60;;;;;;5051353;28;20229;-70
2022/07/18 07:37:39;;;;;;;2.58;1.80;;;37.20;64.80;;;;;;5051877;28;20199;-70
2022/07/18 07:40:05;;;;;;;2.17;1.95;;;37.50;64.00;;;;;;5052075;28;20227;-71
2022/07/18 07:42:31;;;;;;;3.47;2.05;;;37.30;63.60;;;;;;5046407;28;20828;-76
2022/07/18 07:44:56;;;;;;;2.10;2.00;;;37.10;63.50;;;;;;5050586;28;20213;-72
2022/07/18 07:47:22;;;;;;;2.50;2.05;;;37.10;63.70;;;;;;5051953;28;20213;-74
2022/07/18 07:49:47;;;;;;;2.88;1.80;;;37.20;62.90;;;;;;5051492;28;20294;-72
2022/07/18 07:52:14;;;;;;;2.70;2.10;;;37.90;62.70;;;;;;5051856;28;20209;-73
2022/07/18 07:54:40;;;;;;;2.25;1.88;;;37.40;62.70;;;;;;5051812;28;20711;-73
2022/07/18 07:57:06;;;;;;;3.33;2.50;;;38.20;62.60;;;;;;5052189;28;20203;-74
2022/07/18 07:59:32;;;;;;;4.32;2.72;;;38.30;61.80;;;;;;5037757;28;20644;-73
2022/07/18 08:01:58;;;;;;;3.65;2.40;;;38.60;61.30;;;;;;5052513;28;20214;-72
2022/07/18 08:04:24;;;;;;;2.30;2.10;;;39.00;60.10;;;;;;5054163;28;20290;-73
2022/07/18 08:06:50;;;;;;;3.38;2.00;;;39.30;59.70;;;;;;5052478;28;20203;-71
2022/07/18 08:09:16;;;;;;;2.33;1.80;;;38.70;59.90;;;;;;5033827;28;20845;-71
2022/07/18 08:11:41;;;;;;;4.90;2.55;;;37.80;59.30;;;;;;5052044;28;20194;-71
2022/07/18 08:14:07;;;;;;;3.78;1.80;;;37.70;60.00;;;;;;5051401;28;20715;-72
2022/07/18 08:16:32;;;;;;;5.93;4.40;;;37.60;60.20;;;;;;5051012;28;20227;-72
2022/07/18 08:18:58;;;;;;;2.92;1.85;;;37.60;61.00;;;;;;5051083;28;20718;-72
2022/07/18 08:21:23;;;;;;;4.80;2.42;;;37.50;60.20;;;;;;5051705;28;20206;-71
2022/07/18 08:23:49;;;;;;;4.22;1.77;;;36.80;60.40;;;;;;5052282;28;20229;-73
2022/07/18 08:26:15;;;;;;;5.35;2.45;;;36.50;61.50;;;;;;5086732;22;20222;-71
2022/07/18 08:28:41;;;;;;;3.78;2.22;;;36.00;62.00;;;;;;5089366;28;20717;-69
2022/07/18 08:31:06;;;;;;;6.68;3.25;;;35.20;62.40;;;;;;5089711;28;20281;-70
2022/07/18 08:33:32;;;;;;;8.10;3.55;;;34.40;64.30;;;;;;5090217;28;20218;-72
2022/07/18 08:35:58;;;;;;;4.78;2.58;;;33.70;65.40;;;;;;5069123;28;20258;-68
2022/07/18 08:38:23;;;;;;;4.47;2.50;;;33.30;66.50;;;;;;5088407;28;20201;-69
2022/07/18 08:40:52;;;;;;;4.00;2.80;;;33.10;67.20;;;;;;5088752;28;20213;-68
2022/07/18 08:43:18;;;;;;;4.97;2.63;;;33.10;67.50;;;;;;5088308;28;20202;-68
2022/07/18 08:45:45;;;;;;;4.55;2.60;;;33.20;67.70;;;;;;5087980;28;20314;-68
2022/07/18 08:48:17;;;;;;;2.40;2.20;;;33.80;68.70;;;;;;5089276;28;20190;-67
2022/07/18 08:50:48;;;;;;;4.07;2.35;;;33.80;67.00;;;;;;5090604;28;20297;-69
2022/07/18 08:53:14;;;;;;;3.50;2.65;;;33.50;66.90;;;;;;5090193;28;20205;-67
2022/07/18 08:55:40;;;;;;;3.53;2.38;;;33.60;67.20;;;;;;5071799;28;20217;-67
2022/07/18 08:58:06;;;;;;;2.78;2.13;;;34.10;66.90;;;;;;5090187;28;20280;-68
2022/07/18 09:00:35;;;;;;;3.40;2.50;;;34.20;66.10;;;;;;5090667;28;20213;-68
2022/07/18 09:03:02;;;;;;;5.18;2.72;;;34.30;65.30;;;;;;5073029;28;20171;-67
2022/07/18 09:05:28;;;;;;;4.97;2.95;;;34.50;65.50;;;;;;5090975;28;20212;-69
2022/07/18 09:08:08;;;;;;;4.32;2.45;;;35.10;64.60;;;;;;5090135;28;20206;-68
2022/07/18 09:10:46;;;;;;;4.22;2.42;;;33.90;64.90;;;;;;5089860;28;20217;-69
2022/07/18 09:13:12;;;;;;;4.15;2.50;;;33.80;66.60;;;;;;5090164;28;20694;-69
2022/07/18 09:16:11;;;;;;;6.38;2.70;;;33.70;67.20;;;;;;5089873;28;20252;-68
2022/07/18 09:18:55;;;;;;;7.55;3.83;;;33.80;66.30;;;;;;5070377;28;20299;-67
2022/07/18 09:21:23;;;;;;;4.10;2.70;;;34.40;65.90;;;;;;5089549;28;20216;-69
2022/07/18 09:23:51;;;;;;;4.78;3.08;;;34.50;63.60;;;;;;5090621;28;20215;-68
2022/07/18 09:26:35;;;;;;;5.50;4.97;;;34.30;64.30;;;;;;5089748;28;20221;-68
2022/07/18 09:29:01;;;;;;;7.43;4.70;;;34.20;65.00;;;;;;5083500;28;20224;-69
2022/07/18 09:31:27;;;;;;;8.88;6.60;;;34.40;65.70;;;;;;5089577;28;20210;-69
2022/07/18 09:33:58;;;;;;;6.38;2.92;;;34.10;65.40;;;;;;5089812;28;20309;-69
2022/07/18 09:36:24;;;;;;;3.58;2.97;;;33.90;65.20;;;;;;5089893;28;20301;-67
2022/07/18 09:38:50;;;;;;;6.13;3.00;;;34.00;65.10;;;;;;5090039;28;20174;-69
2022/07/18 09:41:21;;;;;;;4.95;3.13;;;33.90;65.50;;;;;;5071378;28;20273;-70
2022/07/18 09:43:47;;;;;;;4.93;3.80;;;33.30;65.50;;;;;;5089913;28;20259;-68
2022/07/18 09:46:12;;;;;;;3.97;3.13;;;33.30;66.50;;;;;;5089815;28;20210;-70
2022/07/18 09:48:38;;;;;;;7.45;3.17;;;32.90;66.50;;;;;;5089545;28;20301;-69
2022/07/18 09:51:05;;;;;;;5.25;3.22;;;32.90;67.90;;;;;;5089933;28;20271;-69
2022/07/18 09:53:43;;;;;;;5.05;3.22;;;33.00;67.70;;;;;;5090361;28;20228;-69
2022/07/18 09:56:21;;;;;;;6.35;3.28;;;33.30;67.80;;;;;;5071933;28;20670;-69
2022/07/18 09:58:52;;;;;;;8.10;2.90;;;32.90;67.10;;;;;;5087406;28;20201;-68
2022/07/18 10:01:18;;;;;;;4.15;2.90;;;33.10;67.90;;;;;;5086766;28;20396;-68
2022/07/18 10:03:44;;;;;;;6.03;3.20;;;32.50;67.00;;;;;;5091588;28;20528;-68
2022/07/18 10:06:10;;;;;;;5.05;3.13;;;32.50;68.30;;;;;;5084846;28;20206;-68
2022/07/18 10:08:36;;;;;;;10.05;3.53;;;32.60;68.00;;;;;;5087939;28;20243;-69
2022/07/18 10:11:04;;;;;;;4.90;3.28;;;32.50;68.60;;;;;;5085210;28;20225;-70
2022/07/18 10:13:32;;;;;;;6.82;3.65;;;32.40;68.60;;;;;;5086282;28;20279;-69
2022/07/18 10:15:58;;;;;;;4.40;3.08;;;32.40;69.70;;;;;;5086697;28;20309;-70
2022/07/18 10:18:27;;;;;;;13.68;7.53;;;32.60;68.30;;;;;;5088305;28;20226;-69
2022/07/18 10:20:58;;;;;;;16.33;11.38;;;32.70;68.60;;;;;;5087951;28;20737;-69
2022/07/18 10:23:33;;;;;;;8.43;5.55;;;32.90;68.60;;;;;;5084328;28;20217;-70
2022/07/18 10:26:18;;;;;;;7.38;3.95;;;32.40;67.80;;;;;;5092447;28;20209;-69
2022/07/18 10:28:56;;;;;;;6.32;3.80;;;32.50;68.70;;;;;;5086806;28;20218;-69
2022/07/18 10:31:24;;;;;;;4.72;3.50;;;32.50;68.30;;;;;;5066984;28;20719;-68
2022/07/18 10:33:50;;;;;;;6.80;3.88;;;32.40;68.60;;;;;;5083227;28;20256;-70
2022/07/18 10:36:17;;;;;;;4.03;3.38;;;32.50;68.60;;;;;;5085712;28;20194;-67
2022/07/18 10:39:10;;;;;;;6.22;3.40;;;31.70;68.90;;;;;;5068565;28;20178;-68
2022/07/18 10:41:39;;;;;;;8.02;3.45;;;32.10;70.00;;;;;;5073834;28;20222;-68
2022/07/18 10:44:27;;;;;;;5.82;3.47;;;32.40;70.10;;;;;;5086793;28;20262;-68
2022/07/18 10:47:20;;;;;;;4.45;3.30;;;31.90;68.30;;;;;;5082056;28;20246;-67
2022/07/18 10:49:57;;;;;;;4.00;3.30;;;31.80;68.40;;;;;;5073834;28;20210;-67
2022/07/18 10:52:28;;;;;;;6.40;3.90;;;31.90;69.30;;;;;;5085502;28;20221;-69
2022/07/18 10:55:27;;;;;;;7.50;5.75;;;32.10;69.50;;;;;;5089672;28;20206;-68
2022/07/18 10:57:53;;;;;;;6.53;4.40;;;32.60;69.20;;;;;;5080589;28;20198;-68
2022/07/18 11:00:33;;;;;;;6.45;3.70;;;32.70;68.50;;;;;;5092224;28;20206;-68
2022/07/18 11:03:08;;;;;;;7.20;4.28;;;32.70;68.20;;;;;;5086678;28;20170;-69
2022/07/18 11:05:50;;;;;;;8.20;5.15;;;32.80;68.40;;;;;;5074954;28;20198;-68
2022/07/18 11:08:18;;;;;;;7.80;3.95;;;32.70;68.60;;;;;;5092315;28;20205;-74
2022/07/18 11:13:27;;;;;;;5.53;4.13;;;32.70;68.50;;;;;;5092255;28;20224;-73
2022/07/18 11:16:13;;;;;;;6.72;4.38;;;32.70;68.50;;;;;;5084370;28;20251;-69
2022/07/18 11:18:39;;;;;;;5.82;4.68;;;32.70;68.00;;;;;;5091785;28;20772;-69
2022/07/18 11:21:19;;;;;;;4.88;3.67;;;32.30;67.40;;;;;;5073718;28;20202;-69
2022/07/18 11:23:50;;;;;;;8.27;4.22;;;32.40;68.10;;;;;;5092329;28;20181;-70
2022/07/18 11:26:21;;;;;;;6.90;3.92;;;31.90;68.70;;;;;;5091595;28;20234;-71
2022/07/18 11:28:50;;;;;;;8.80;4.18;;;31.70;68.40;;;;;;5083396;28;20201;-71
2022/07/18 11:31:16;;;;;;;6.03;4.05;;;31.40;69.90;;;;;;5092016;28;20272;-70
2022/07/18 11:33:45;;;;;;;5.85;3.63;;;31.30;69.90;;;;;;5091760;28;20199;-71
2022/07/18 11:36:15;;;;;;;5.65;3.38;;;31.30;70.30;;;;;;5073473;28;20489;-71
2022/07/18 11:38:53;;;;;;;6.28;3.63;;;31.30;70.30;;;;;;5073554;28;20284;-70
2022/07/18 11:41:20;;;;;;;7.88;4.28;;;31.30;71.00;;;;;;5091726;28;20199;-69
2022/07/18 11:43:48;;;;;;;7.05;3.40;;;31.40;70.70;;;;;;5091952;28;20209;-74
2022/07/18 11:46:16;;;;;;;8.10;4.00;;;31.40;70.00;;;;;;5072918;28;20237;-73
2022/07/18 11:48:45;;;;;;;5.30;3.70;;;31.30;70.50;;;;;;5091115;28;20281;-69
2022/07/18 11:51:20;;;;;;;5.18;3.50;;;31.30;73.10;;;;;;5090938;28;20210;-69
2022/07/18 11:53:51;;;;;;;5.53;4.10;;;31.30;71.20;;;;;;5091872;28;20601;-66
2022/07/18 11:56:17;;;;;;;7.30;3.97;;;31.00;70.50;;;;;;5073165;28;20253;-68
2022/07/18 11:58:45;;;;;;;14.82;4.43;;;30.50;71.20;;;;;;5087204;28;20202;-67
2022/07/18 12:01:11;;;;;;;6.53;3.70;;;30.50;71.90;;;;;;5091168;28;20202;-66
2022/07/18 12:03:40;;;;;;;6.97;4.10;;;30.30;71.10;;;;;;5090612;28;20229;-77
2022/07/18 12:06:18;;;;;;;5.57;3.67;;;30.10;72.00;;;;;;5090794;28;20241;-77
2022/07/18 12:08:45;;;;;;;8.05;4.10;;;29.90;72.30;;;;;;5072780;28;20178;-76
2022/07/18 12:11:21;;;;;;;8.80;4.40;;;30.40;75.30;;;;;;5072882;28;20230;-74
2022/07/18 12:14:10;;;;;;;4.65;3.70;;;30.60;74.60;;;;;;5064801;28;20205;-68
2022/07/18 12:16:42;;;;;;;5.50;3.20;;;30.70;72.10;;;;;;5077743;28;20275;-75
2022/07/18 12:19:14;;;;;;;5.47;3.22;;;30.80;72.90;;;;;;5090895;28;20198;-74
2022/07/18 12:21:53;;;;;;;4.53;3.70;;;31.00;72.60;;;;;;5090428;28;20210;-77
2022/07/18 12:24:27;;;;;;;6.43;4.03;;;31.30;71.30;;;;;;5076529;28;20256;-73
2022/07/18 12:27:21;;;;;;;4.20;3.35;;;31.20;71.70;;;;;;5088625;28;20204;-70
2022/07/18 12:30:03;;;;;;;5.82;3.70;;;31.30;72.10;;;;;;5083588;28;20210;-73
2022/07/18 12:32:30;;;;;;;4.35;3.30;;;31.20;70.50;;;;;;5090855;28;20210;-72
2022/07/18 12:34:57;;;;;;;5.22;3.53;;;31.20;70.90;;;;;;5090669;28;20704;-73
2022/07/18 12:37:24;;;;;;;5.50;4.05;;;31.30;70.70;;;;;;5090619;28;20257;-71
2022/07/18 12:39:59;;;;;;;5.07;3.50;;;31.30;70.90;;;;;;5071841;28;20209;-71
2022/07/18 12:42:34;;;;;;;5.60;4.22;;;31.40;72.20;;;;;;5090459;28;20251;-70
2022/07/18 12:45:00;;;;;;;7.90;4.70;;;31.60;70.70;;;;;;5065348;28;20658;-70
2022/07/18 12:47:26;;;;;;;11.90;4.82;;;31.60;69.80;;;;;;5087593;28;20166;-70
2022/07/18 12:49:51;;;;;;;6.25;3.50;;;31.60;70.40;;;;;;5083674;28;20222;-69
2022/07/18 12:52:18;;;;;;;6.03;3.30;;;31.50;69.40;;;;;;5069859;28;20210;-66
2022/07/18 12:54:45;;;;;;;8.25;4.00;;;31.40;69.90;;;;;;5089759;28;20202;-71
2022/07/18 12:57:11;;;;;;;9.75;4.10;;;31.40;70.20;;;;;;5086787;28;20269;-70